createdAt,value
2022-08-09T00:00:56.434Z,100398.22
2022-08-09T00:04:03.472Z,100400.28
2022-08-09T00:06:53.353Z,100400.00
2022-08-09T00:09:41.784Z,100395.00
2022-08-09T00:12:34.575Z,100393.59
2022-08-09T00:15:26.810Z,100383.31
2022-08-09T00:18:34.691Z,100389.00
2022-08-09T00:21:23.623Z,100390.22
2022-08-09T00:24:12.668Z,100385.25
2022-08-09T00:27:03.869Z,100386.38
2022-08-09T00:30:16.299Z,100374.44
2022-08-09T00:33:02.386Z,100381.09
2022-08-09T00:35:52.313Z,100375.38
2022-08-09T00:38:42.867Z,100373.84
2022-08-09T00:44:11.082Z,100373.31
2022-08-09T00:44:41.980Z,100386.84
2022-08-09T00:47:35.924Z,100374.66
2022-08-09T00:50:29.741Z,100369.66
2022-08-09T00:53:18.747Z,100378.50
2022-08-09T00:56:13.600Z,100372.53
2022-08-09T00:59:02.652Z,100369.88
2022-08-09T01:01:51.240Z,100373.34
2022-08-09T01:04:50.660Z,100382.13
2022-08-09T01:08:00.477Z,100374.31
2022-08-09T01:10:55.057Z,100380.94
2022-08-09T01:13:59.375Z,100377.34
2022-08-09T01:16:49.425Z,100374.03
2022-08-09T01:19:57.028Z,100376.78
2022-08-09T01:24:03.012Z,100375.38
2022-08-09T01:26:54.133Z,100376.75
2022-08-09T01:29:55.537Z,100374.41
2022-08-09T01:32:46.851Z,100381.44
2022-08-09T01:35:42.340Z,100379.22
2022-08-09T01:38:32.536Z,100383.75
2022-08-09T01:41:25.719Z,100376.16
2022-08-09T01:44:16.951Z,100373.78
2022-08-09T01:47:11.586Z,100376.66
2022-08-09T01:50:00.384Z,100371.56
2022-08-09T01:52:55.121Z,100363.47
2022-08-09T01:55:43.610Z,100371.91
2022-08-09T01:58:32.230Z,100366.00
2022-08-09T02:01:58.333Z,100376.63
2022-08-09T02:04:31.839Z,100369.25
2022-08-09T02:08:41.306Z,100372.97
2022-08-09T02:10:32.631Z,100378.53
2022-08-09T02:13:26.081Z,100384.84
2022-08-09T02:16:33.869Z,100385.00
2022-08-09T02:19:35.122Z,100381.66
2022-08-09T02:22:35.919Z,100393.13
2022-08-09T02:25:29.778Z,100400.31
2022-08-09T02:28:24.136Z,100402.22
2022-08-09T02:31:15.036Z,100399.00
2022-08-09T02:34:13.333Z,100411.06
2022-08-09T02:37:16.231Z,100412.97
2022-08-09T02:40:09.477Z,100417.31
2022-08-09T02:42:59.905Z,100417.41
2022-08-09T02:45:48.575Z,100420.44
2022-08-09T02:48:40.086Z,100420.94
2022-08-09T02:51:40.467Z,100416.78
2022-08-09T02:54:29.189Z,100420.50
2022-08-09T02:57:23.109Z,100420.63
2022-08-09T03:00:25.183Z,100417.41
2022-08-09T03:03:21.376Z,100417.44
2022-08-09T03:06:14.523Z,100417.16
2022-08-09T03:09:04.687Z,100411.69
2022-08-09T03:12:08.521Z,100419.22
2022-08-09T03:14:59.700Z,100418.19
2022-08-09T03:17:58.661Z,100429.28
2022-08-09T03:20:47.393Z,100414.50
2022-08-09T03:23:35.884Z,100424.31
2022-08-09T03:26:30.893Z,100429.47
2022-08-09T03:29:23.223Z,100418.13
2022-08-09T03:32:11.869Z,100427.00
2022-08-09T03:35:00.465Z,100430.09
2022-08-09T03:37:54.422Z,100426.50
2022-08-09T03:40:45.191Z,100435.56
2022-08-09T03:43:36.524Z,100439.56
2022-08-09T03:46:29.266Z,100432.31
2022-08-09T03:49:19.413Z,100442.69
2022-08-09T03:52:12.429Z,100439.81
2022-08-09T03:55:01.177Z,100444.69
2022-08-09T03:58:06.552Z,100447.88
2022-08-09T04:01:04.525Z,100451.31
2022-08-09T04:04:01.251Z,100464.25
2022-08-09T04:06:50.849Z,100463.84
2022-08-09T04:09:47.971Z,100472.28
2022-08-09T04:12:45.236Z,100465.09
2022-08-09T04:16:18.722Z,100468.97
2022-08-09T04:18:43.766Z,100476.69
2022-08-09T04:21:36.226Z,100480.56
2022-08-09T04:24:27.079Z,100481.13
2022-08-09T04:27:15.517Z,100481.81
2022-08-09T04:30:04.050Z,100485.81
2022-08-09T04:32:52.612Z,100484.69
2022-08-09T04:35:44.050Z,100487.72
2022-08-09T04:38:32.500Z,100492.28
2022-08-09T04:41:23.701Z,100489.16
2022-08-09T04:44:14.432Z,100487.72
2022-08-09T04:47:04.324Z,100501.03
2022-08-09T04:49:55.863Z,100506.25
2022-08-09T04:52:45.766Z,100509.09
2022-08-09T04:55:39.613Z,100513.59
2022-08-09T04:58:40.908Z,100513.78
2022-08-09T05:01:30.405Z,100514.75
2022-08-09T05:04:21.861Z,100510.34
2022-08-09T05:07:20.065Z,100516.63
2022-08-09T05:10:12.927Z,100516.94
2022-08-09T05:13:03.883Z,100528.16
2022-08-09T05:15:56.521Z,100521.75
2022-08-09T05:18:58.187Z,100531.91
2022-08-09T05:21:55.273Z,100521.22
2022-08-09T05:24:44.459Z,100526.88
2022-08-09T05:27:45.616Z,100520.16
2022-08-09T05:30:36.500Z,100531.66
2022-08-09T05:33:26.455Z,100535.00
2022-08-09T05:36:21.517Z,100542.50
2022-08-09T05:39:29.076Z,100539.94
2022-08-09T05:42:21.805Z,100542.72
2022-08-09T05:45:14.709Z,100541.00
2022-08-09T05:48:03.355Z,100539.16
2022-08-09T05:51:12.065Z,100537.81
2022-08-09T05:54:00.420Z,100537.16
2022-08-09T05:56:54.934Z,100533.88
2022-08-09T05:59:43.971Z,100535.34
2022-08-09T06:02:35.525Z,100537.34
2022-08-09T06:05:30.937Z,100531.91
2022-08-09T06:08:32.973Z,100535.31
2022-08-09T06:11:24.376Z,100535.50
2022-08-09T06:14:29.139Z,100537.88
2022-08-09T06:17:17.637Z,100533.22
2022-08-09T06:20:08.712Z,100532.53
2022-08-09T06:22:57.918Z,100539.25
2022-08-09T06:25:46.903Z,100534.41
2022-08-09T06:28:37.248Z,100540.28
2022-08-09T06:31:30.509Z,100546.47
2022-08-09T06:34:22.875Z,100542.47
2022-08-09T06:37:13.429Z,100556.63
2022-08-09T06:40:16.330Z,100551.25
2022-08-09T06:43:11.462Z,100554.44
2022-08-09T06:46:06.772Z,100554.13
2022-08-09T06:48:59.678Z,100552.56
2022-08-09T06:51:48.589Z,100561.50
2022-08-09T06:54:38.746Z,100559.69
2022-08-09T06:58:01.495Z,100559.94
2022-08-09T07:00:48.872Z,100564.50
2022-08-09T07:03:52.216Z,100567.69
2022-08-09T07:06:42.538Z,100571.59
2022-08-09T07:09:55.582Z,100574.94
2022-08-09T07:12:42.338Z,100576.00
2022-08-09T07:16:36.729Z,100574.13
2022-08-09T07:18:39.693Z,100577.38
2022-08-09T07:21:30.906Z,100574.09
2022-08-09T07:24:19.542Z,100569.00
2022-08-09T07:27:33.582Z,100566.28
2022-08-09T07:30:21.701Z,100566.31
2022-08-09T07:33:16.689Z,100563.31
2022-08-09T07:36:06.065Z,100568.94
2022-08-09T07:39:01.031Z,100573.53
2022-08-09T07:41:50.738Z,100575.91
2022-08-09T07:44:51.245Z,100576.59
2022-08-09T07:48:00.436Z,100573.03
2022-08-09T07:50:53.114Z,100577.69
2022-08-09T07:54:07.350Z,100573.34
2022-08-09T07:56:56.553Z,100579.69
2022-08-09T07:59:52.235Z,100581.06
2022-08-09T08:03:04.670Z,100578.47
2022-08-09T08:05:57.289Z,100574.78
2022-08-09T08:09:03.708Z,100579.50
2022-08-09T08:12:11.988Z,100563.22
2022-08-09T08:15:01.808Z,100582.00
2022-08-09T08:17:53.395Z,100578.31
2022-08-09T08:20:45.223Z,100573.50
2022-08-09T08:23:34.974Z,100567.84
2022-08-09T08:26:26.632Z,100575.16
2022-08-09T08:29:39.537Z,100579.09
2022-08-09T08:32:34.065Z,100575.03
2022-08-09T08:35:22.938Z,100573.16
2022-08-09T08:38:12.764Z,100570.72
2022-08-09T08:41:02.010Z,100574.78
2022-08-09T08:43:57.248Z,100561.06
2022-08-09T08:46:59.798Z,100561.59
2022-08-09T08:49:51.884Z,100565.00
2022-08-09T08:52:59.605Z,100572.09
2022-08-09T08:55:52.708Z,100572.50
2022-08-09T08:58:44.420Z,100567.50
2022-08-09T09:01:44.704Z,100579.38
2022-08-09T09:04:47.733Z,100569.63
2022-08-09T09:07:42.233Z,100567.59
2022-08-09T09:10:31.887Z,100572.50
2022-08-09T09:13:21.697Z,100567.69
2022-08-09T09:16:11.899Z,100562.28
2022-08-09T09:22:12.570Z,100569.47
2022-08-09T09:26:02.186Z,100569.09
2022-08-09T09:28:10.883Z,100567.81
2022-08-09T09:31:01.590Z,100568.94
2022-08-09T09:33:56.816Z,100569.19
2022-08-09T09:36:51.047Z,100563.56
2022-08-09T09:39:55.574Z,100569.88
2022-08-09T09:42:55.824Z,100553.47
2022-08-09T09:45:57.607Z,100559.59
2022-08-09T09:49:01.696Z,100565.22
2022-08-09T09:51:51.240Z,100555.25
2022-08-09T09:54:43.085Z,100555.63
2022-08-09T09:58:04.103Z,100557.63
2022-08-09T10:00:55.482Z,100556.91
2022-08-09T10:03:58.044Z,100545.06
2022-08-09T10:06:52.038Z,100557.03
2022-08-09T10:09:54.806Z,100549.41
2022-08-09T10:12:51.821Z,100556.22
2022-08-09T10:16:08.953Z,100548.63
2022-08-09T10:18:59.989Z,100533.56
2022-08-09T10:21:52.257Z,100548.88
2022-08-09T10:24:41.630Z,100539.25
2022-08-09T10:27:38.472Z,100541.16
2022-08-09T10:34:08.704Z,100536.75
2022-08-09T10:36:45.528Z,100534.75
2022-08-09T10:39:40.881Z,100537.75
2022-08-09T10:42:37.645Z,100536.09
2022-08-09T10:45:31.745Z,100527.78
2022-08-09T10:48:30.646Z,100525.53
2022-08-09T10:51:29.624Z,100528.00
2022-08-09T10:54:29.659Z,100531.59
2022-08-09T10:57:19.538Z,100523.97
2022-08-09T11:00:56.944Z,100532.75
2022-08-09T11:04:30.564Z,100529.69
2022-08-09T11:07:56.656Z,100527.06
2022-08-09T11:11:00.582Z,100529.91
2022-08-09T11:14:28.435Z,100527.44
2022-08-09T11:17:45.408Z,100540.69
2022-08-09T11:20:43.305Z,100517.13
2022-08-09T11:23:31.754Z,100527.34
2022-08-09T11:26:39.799Z,100535.09
2022-08-09T11:30:05.681Z,100534.94
2022-08-09T11:33:09.144Z,100532.97
2022-08-09T11:36:00.143Z,100536.63
2022-08-09T11:39:01.876Z,100534.38
2022-08-09T11:41:53.599Z,100537.66
2022-08-09T11:44:48.335Z,100533.72
2022-08-09T11:47:47.371Z,100523.81
2022-08-09T11:52:48.617Z,100524.13
2022-08-09T11:54:27.732Z,100515.25
2022-08-09T11:58:00.999Z,100517.19
2022-08-09T12:00:52.852Z,100509.34
2022-08-09T12:03:56.579Z,100511.84
2022-08-09T12:06:55.831Z,100513.47
2022-08-09T12:09:50.598Z,100513.94
2022-08-09T12:12:47.334Z,100512.94
2022-08-09T12:15:49.761Z,100512.34
2022-08-09T12:18:43.799Z,100507.56
2022-08-09T12:21:50.157Z,100501.78
2022-08-09T12:24:39.766Z,100509.41
2022-08-09T12:28:58.460Z,100510.44
2022-08-09T12:30:40.092Z,100501.16
2022-08-09T12:33:50.936Z,100490.81
2022-08-09T12:36:50.567Z,100504.13
2022-08-09T12:39:39.462Z,100508.94
2022-08-09T12:42:28.101Z,100484.22
2022-08-09T12:45:32.305Z,100491.22
2022-08-09T12:48:33.774Z,100487.13
2022-08-09T12:51:52.856Z,100492.94
2022-08-09T12:57:41.083Z,100479.75
2022-08-09T13:00:34.299Z,100486.97
2022-08-09T13:03:53.123Z,100475.22
2022-08-09T13:06:39.013Z,100480.13
2022-08-09T13:09:30.565Z,100473.75
2022-08-09T13:12:19.822Z,100479.72
2022-08-09T13:15:12.935Z,100474.16
2022-08-09T13:18:06.087Z,100468.22
2022-08-09T13:22:33.823Z,100474.41
2022-08-09T13:24:42.635Z,100475.63
2022-08-09T13:27:29.307Z,100474.19
2022-08-09T13:30:50.035Z,100464.47
2022-08-09T13:33:52.810Z,100466.53
2022-08-09T13:36:43.550Z,100457.66
2022-08-09T13:41:54.350Z,100442.59
2022-08-09T13:42:41.787Z,100461.59
2022-08-09T13:46:42.506Z,100465.91
2022-08-09T13:48:42.202Z,100456.44
2022-08-09T13:51:30.775Z,100453.94
2022-08-09T13:54:20.426Z,100448.81
2022-08-09T13:57:37.281Z,100454.16
2022-08-09T14:00:22.699Z,100449.78
2022-08-09T14:04:03.338Z,100448.75
2022-08-09T14:06:29.594Z,100444.84
2022-08-09T14:09:20.424Z,100433.94
2022-08-09T14:12:15.539Z,100428.91
2022-08-09T14:15:19.618Z,100436.53
2022-08-09T14:18:19.619Z,100429.34
2022-08-09T14:21:11.084Z,100442.34
2022-08-09T14:24:05.502Z,100439.69
2022-08-09T14:27:00.154Z,100434.34
2022-08-09T14:30:34.594Z,100430.22
2022-08-09T14:32:58.182Z,100437.44
2022-08-09T14:35:52.972Z,100440.13
2022-08-09T14:38:43.329Z,100417.84
2022-08-09T14:41:39.627Z,100424.47
2022-08-09T14:44:32.675Z,100426.91
2022-08-09T14:47:45.441Z,100428.16
2022-08-09T14:50:38.269Z,100430.22
2022-08-09T14:53:26.981Z,100427.91
2022-08-09T14:56:16.768Z,100420.69
2022-08-09T14:59:05.204Z,100419.84
2022-08-09T15:01:58.313Z,100411.19
2022-08-09T15:04:47.813Z,100415.28
2022-08-09T15:07:36.412Z,100411.19
2022-08-09T15:10:25.475Z,100406.84
2022-08-09T15:13:15.451Z,100412.44
2022-08-09T15:16:07.870Z,100411.19
2022-08-09T15:18:59.560Z,100404.50
2022-08-09T15:21:56.832Z,100413.50
2022-08-09T15:24:50.450Z,100419.69
2022-08-09T15:27:48.132Z,100407.75
2022-08-09T15:30:58.730Z,100414.31
2022-08-09T15:34:18.102Z,100407.31
2022-08-09T15:37:03.846Z,100407.66
2022-08-09T15:39:54.921Z,100411.16
2022-08-09T15:42:44.766Z,100403.56
2022-08-09T15:45:51.982Z,100396.78
2022-08-09T15:48:43.070Z,100408.06
2022-08-09T15:52:03.580Z,100393.63
2022-08-09T15:54:53.864Z,100395.31
2022-08-09T15:57:44.172Z,100392.63
2022-08-09T16:00:39.923Z,100403.47
2022-08-09T16:03:38.117Z,100410.38
2022-08-09T16:06:35.412Z,100398.00
2022-08-09T16:09:32.688Z,100398.78
2022-08-09T16:12:34.483Z,100402.06
2022-08-09T16:16:10.350Z,100405.75
2022-08-09T16:18:32.620Z,100401.38
2022-08-09T16:21:25.455Z,100395.00
2022-08-09T16:24:33.639Z,100397.50
2022-08-09T16:27:22.726Z,100392.16
2022-08-09T16:30:15.302Z,100393.78
2022-08-09T16:33:20.069Z,100385.50
2022-08-09T16:36:14.492Z,100381.28
2022-08-09T16:39:07.027Z,100382.72
2022-08-09T16:42:03.542Z,100390.28
2022-08-09T16:44:53.287Z,100389.91
2022-08-09T16:48:42.027Z,100389.91
2022-08-09T16:50:59.056Z,100397.41
2022-08-09T16:54:26.166Z,100398.78
2022-08-09T16:57:05.761Z,100396.19
2022-08-09T16:59:59.156Z,100403.22
2022-08-09T17:02:47.756Z,100405.63
2022-08-09T17:06:08.307Z,100404.00
2022-08-09T17:09:01.632Z,100400.69
2022-08-09T17:11:54.023Z,100394.72
2022-08-09T17:14:46.294Z,100396.75
2022-08-09T17:17:51.005Z,100401.28
2022-08-09T17:20:49.119Z,100400.81
2022-08-09T17:24:27.545Z,100395.22
2022-08-09T17:26:51.982Z,100409.31
2022-08-09T17:29:45.530Z,100402.44
2022-08-09T17:32:37.500Z,100404.38
2022-08-09T17:35:27.113Z,100402.38
2022-08-09T17:38:30.459Z,100405.16
2022-08-09T17:41:25.691Z,100409.59
2022-08-09T17:44:38.363Z,100406.84
2022-08-09T17:47:49.174Z,100409.06
2022-08-09T17:50:38.519Z,100401.97
2022-08-09T17:53:27.539Z,100408.56
2022-08-09T17:56:20.561Z,100407.00
2022-08-09T17:59:11.706Z,100413.63
2022-08-09T18:02:06.197Z,100411.25
2022-08-09T18:05:02.415Z,100412.34
2022-08-09T18:07:50.872Z,100421.41
2022-08-09T18:10:39.380Z,100414.84
2022-08-09T18:13:39.363Z,100419.66
2022-08-09T18:16:48.797Z,100425.47
2022-08-09T18:20:58.762Z,100430.91
2022-08-09T18:22:51.212Z,100430.53
2022-08-09T18:25:50.016Z,100432.78
2022-08-09T18:30:42.692Z,100437.84
2022-08-09T18:31:55.796Z,100430.63
2022-08-09T18:34:44.885Z,100438.66
2022-08-09T18:37:46.931Z,100432.91
2022-08-09T18:40:39.089Z,100433.25
2022-08-09T18:43:27.788Z,100436.41
2022-08-09T18:46:50.383Z,100439.28
2022-08-09T18:49:41.649Z,100442.22
2022-08-09T18:52:34.936Z,100446.22
2022-08-09T18:55:45.642Z,100449.75
2022-08-09T18:58:33.919Z,100455.19
2022-08-09T19:01:23.807Z,100451.59
2022-08-09T19:04:12.310Z,100455.41
2022-08-09T19:07:00.753Z,100460.00
2022-08-09T19:10:14.369Z,100469.09
2022-08-09T19:13:18.437Z,100472.31
2022-08-09T19:16:09.314Z,100471.03
2022-08-09T19:18:57.798Z,100482.41
2022-08-09T19:21:51.688Z,100475.22
2022-08-09T19:25:09.526Z,100474.91
2022-08-09T19:27:50.996Z,100475.44
2022-08-09T19:30:44.570Z,100470.50
2022-08-09T19:33:34.730Z,100484.13
2022-08-09T19:36:23.334Z,100487.09
2022-08-09T19:39:20.868Z,100495.41
2022-08-09T19:42:28.246Z,100498.16
2022-08-09T19:45:16.892Z,100499.94
2022-08-09T19:48:06.369Z,100497.44
2022-08-09T19:51:00.819Z,100492.47
2022-08-09T19:53:49.332Z,100497.16
2022-08-09T19:56:44.574Z,100502.38
2022-08-09T19:59:58.828Z,100497.19
2022-08-09T20:04:11.715Z,100504.50
2022-08-09T20:05:52.811Z,100509.88
2022-08-09T20:08:42.704Z,100510.69
2022-08-09T20:11:43.236Z,100511.59
2022-08-09T20:14:50.009Z,100506.41
2022-08-09T20:17:41.590Z,100506.22
2022-08-09T20:20:37.644Z,100514.63
2022-08-09T20:23:38.792Z,100509.75
2022-08-09T20:26:29.955Z,100502.38
2022-08-09T20:29:19.280Z,100505.28
2022-08-09T20:32:30.002Z,100502.34
2022-08-09T20:35:18.228Z,100503.66
2022-08-09T20:38:23.811Z,100502.25
2022-08-09T20:41:16.077Z,100511.50
2022-08-09T20:44:10.369Z,100512.84
2022-08-09T20:46:59.214Z,100516.69
2022-08-09T20:49:47.733Z,100516.22
2022-08-09T20:52:38.394Z,100513.88
2022-08-09T20:55:28.051Z,100522.69
2022-08-09T20:58:20.334Z,100510.16
2022-08-09T21:01:33.039Z,100516.50
2022-08-09T21:05:51.714Z,100526.44
2022-08-09T21:07:38.526Z,100520.63
2022-08-09T21:10:30.633Z,100519.53
2022-08-09T21:13:19.151Z,100528.13
2022-08-09T21:16:19.496Z,100518.44
2022-08-09T21:20:16.947Z,100522.00
2022-08-09T21:22:35.970Z,100520.22
2022-08-09T21:25:44.258Z,100526.16
2022-08-09T21:28:51.859Z,100525.13
2022-08-09T21:31:49.469Z,100524.13
2022-08-09T21:34:38.222Z,100526.31
2022-08-09T21:37:47.108Z,100528.44
2022-08-09T21:40:50.694Z,100522.53
2022-08-09T21:43:56.692Z,100531.34
2022-08-09T21:46:47.951Z,100535.69
2022-08-09T21:49:39.700Z,100526.34
2022-08-09T21:52:31.310Z,100530.00
2022-08-09T21:55:19.732Z,100526.69
2022-08-09T21:58:08.635Z,100528.81
2022-08-09T22:01:01.983Z,100527.63
2022-08-09T22:03:59.493Z,100525.44
2022-08-09T22:07:02.001Z,100534.03
2022-08-09T22:09:51.554Z,100531.41
2022-08-09T22:12:40.525Z,100527.53
2022-08-09T22:15:38.424Z,100529.63
2022-08-09T22:18:32.817Z,100536.19
2022-08-09T22:21:24.345Z,100534.13
2022-08-09T22:24:16.647Z,100537.44
2022-08-09T22:27:06.512Z,100535.28
2022-08-09T22:29:55.127Z,100535.00
2022-08-09T22:32:45.950Z,100537.22
2022-08-09T22:36:00.018Z,100540.56
2022-08-09T22:38:44.412Z,100537.81
2022-08-09T22:41:33.212Z,100542.78
2022-08-09T22:44:22.935Z,100535.59
2022-08-09T22:48:13.623Z,100545.84
2022-08-09T22:50:19.925Z,100535.19
2022-08-09T22:53:08.381Z,100541.56
2022-08-09T22:56:29.691Z,100542.00
2022-08-09T22:59:56.715Z,100543.22
2022-08-09T23:02:20.129Z,100540.03
2022-08-09T23:05:09.746Z,100538.63
2022-08-09T23:08:22.592Z,100537.81
2022-08-09T23:11:20.971Z,100538.34
2022-08-09T23:14:10.086Z,100542.19
2022-08-09T23:17:05.801Z,100541.50
2022-08-09T23:20:06.567Z,100538.16
2022-08-09T23:22:56.798Z,100532.88
2022-08-09T23:25:45.230Z,100536.22
2022-08-09T23:28:35.035Z,100532.47
2022-08-09T23:31:23.436Z,100527.78
2022-08-09T23:34:12.020Z,100526.00
2022-08-09T23:37:00.503Z,100523.50
2022-08-09T23:39:48.976Z,100525.44
2022-08-09T23:42:37.466Z,100530.00
2022-08-09T23:45:36.951Z,100526.53
2022-08-09T23:48:27.136Z,100534.16
2022-08-09T23:51:15.613Z,100535.00
2022-08-09T23:54:04.208Z,100532.75
2022-08-09T23:56:56.147Z,100530.41
